sensor_id;sensor_type;location;lat;lon;timestamp;P1;durP1;ratioP1;P2;durP2;ratioP2
8297;SDS011;4187;42.778;23.242;2022-12-20T00:01:24;15.70;;;9.67;;
8297;SDS011;4187;42.778;23.242;2022-12-20T00:03:52;15.40;;;8.87;;
8297;SDS011;4187;42.778;23.242;2022-12-20T00:06:21;17.77;;;9.33;;
8297;SDS011;4187;42.778;23.242;2022-12-20T00:08:52;15.50;;;9.57;;
8297;SDS011;4187;42.778;23.242;2022-12-20T00:11:23;16.57;;;8.77;;
8297;SDS011;4187;42.778;23.242;2022-12-20T00:13:50;14.63;;;9.10;;
8297;SDS011;4187;42.778;23.242;2022-12-20T00:16:18;13.27;;;8.53;;
8297;SDS011;4187;42.778;23.242;2022-12-20T00:18:49;13.67;;;9.07;;
8297;SDS011;4187;42.778;23.242;2022-12-20T00:21:16;15.50;;;10.20;;
8297;SDS011;4187;42.778;23.242;2022-12-20T00:23:44;18.33;;;10.17;;
8297;SDS011;4187;42.778;23.242;2022-12-20T00:26:14;17.53;;;9.77;;
8297;SDS011;4187;42.778;23.242;2022-12-20T00:28:41;12.70;;;9.27;;
8297;SDS011;4187;42.778;23.242;2022-12-20T00:31:10;14.47;;;9.30;;
8297;SDS011;4187;42.778;23.242;2022-12-20T00:33:39;13.30;;;8.73;;
8297;SDS011;4187;42.778;23.242;2022-12-20T00:36:07;15.63;;;9.10;;
8297;SDS011;4187;42.778;23.242;2022-12-20T00:38:34;13.47;;;9.07;;
8297;SDS011;4187;42.778;23.242;2022-12-20T00:41:02;14.27;;;8.80;;
8297;SDS011;4187;42.778;23.242;2022-12-20T00:43:33;16.27;;;9.43;;
8297;SDS011;4187;42.778;23.242;2022-12-20T00:46:00;13.33;;;8.57;;
8297;SDS011;4187;42.778;23.242;2022-12-20T00:48:27;17.23;;;9.70;;
8297;SDS011;4187;42.778;23.242;2022-12-20T00:50:56;15.93;;;9.47;;
8297;SDS011;4187;42.778;23.242;2022-12-20T00:53:24;11.77;;;8.50;;
8297;SDS011;4187;42.778;23.242;2022-12-20T00:55:51;14.93;;;8.70;;
8297;SDS011;4187;42.778;23.242;2022-12-20T00:58:18;13.47;;;8.80;;
8297;SDS011;4187;42.778;23.242;2022-12-20T01:00:46;14.07;;;8.97;;
8297;SDS011;4187;42.778;23.242;2022-12-20T01:03:13;12.27;;;8.53;;
8297;SDS011;4187;42.778;23.242;2022-12-20T01:05:48;15.33;;;9.13;;
8297;SDS011;4187;42.778;23.242;2022-12-20T01:08:15;16.77;;;8.53;;
8297;SDS011;4187;42.778;23.242;2022-12-20T01:10:43;14.60;;;8.97;;
8297;SDS011;4187;42.778;23.242;2022-12-20T01:13:10;10.17;;;7.80;;
8297;SDS011;4187;42.778;23.242;2022-12-20T01:15:37;14.13;;;8.50;;
8297;SDS011;4187;42.778;23.242;2022-12-20T01:18:05;14.83;;;8.63;;
8297;SDS011;4187;42.778;23.242;2022-12-20T01:20:32;13.13;;;8.20;;
8297;SDS011;4187;42.778;23.242;2022-12-20T01:22:59;16.00;;;9.43;;
8297;SDS011;4187;42.778;23.242;2022-12-20T01:25:26;12.47;;;8.10;;
8297;SDS011;4187;42.778;23.242;2022-12-20T01:27:53;12.37;;;8.57;;
8297;SDS011;4187;42.778;23.242;2022-12-20T01:30:20;15.57;;;9.77;;
8297;SDS011;4187;42.778;23.242;2022-12-20T01:32:46;11.63;;;7.57;;
8297;SDS011;4187;42.778;23.242;2022-12-20T01:35:15;14.90;;;9.23;;
8297;SDS011;4187;42.778;23.242;2022-12-20T01:37:42;13.43;;;8.60;;
8297;SDS011;4187;42.778;23.242;2022-12-20T01:40:09;15.37;;;9.20;;
8297;SDS011;4187;42.778;23.242;2022-12-20T01:42:36;14.03;;;9.67;;
8297;SDS011;4187;42.778;23.242;2022-12-20T01:45:03;13.37;;;8.77;;
8297;SDS011;4187;42.778;23.242;2022-12-20T01:47:38;13.03;;;8.97;;
8297;SDS011;4187;42.778;23.242;2022-12-20T01:50:06;13.47;;;7.90;;
8297;SDS011;4187;42.778;23.242;2022-12-20T01:52:36;11.70;;;7.43;;
8297;SDS011;4187;42.778;23.242;2022-12-20T01:55:07;11.33;;;7.37;;
8297;SDS011;4187;42.778;23.242;2022-12-20T01:57:39;11.33;;;8.03;;
8297;SDS011;4187;42.778;23.242;2022-12-20T02:00:10;12.47;;;8.10;;
8297;SDS011;4187;42.778;23.242;2022-12-20T02:02:39;12.10;;;7.93;;
8297;SDS011;4187;42.778;23.242;2022-12-20T02:05:08;12.90;;;7.73;;
8297;SDS011;4187;42.778;23.242;2022-12-20T02:07:37;9.53;;;7.07;;
8297;SDS011;4187;42.778;23.242;2022-12-20T02:10:05;9.03;;;6.50;;
8297;SDS011;4187;42.778;23.242;2022-12-20T02:12:36;11.87;;;7.43;;
8297;SDS011;4187;42.778;23.242;2022-12-20T02:15:10;12.23;;;7.87;;
8297;SDS011;4187;42.778;23.242;2022-12-20T02:17:49;12.77;;;8.37;;
8297;SDS011;4187;42.778;23.242;2022-12-20T02:26:43;12.93;;;7.67;;
8297;SDS011;4187;42.778;23.242;2022-12-20T02:29:29;10.63;;;7.10;;
8297;SDS011;4187;42.778;23.242;2022-12-20T02:32:03;11.80;;;7.67;;
8297;SDS011;4187;42.778;23.242;2022-12-20T02:34:37;12.57;;;8.17;;
8297;SDS011;4187;42.778;23.242;2022-12-20T02:37:05;13.57;;;8.33;;
8297;SDS011;4187;42.778;23.242;2022-12-20T02:39:32;14.93;;;9.53;;
8297;SDS011;4187;42.778;23.242;2022-12-20T02:42:02;12.40;;;8.63;;
8297;SDS011;4187;42.778;23.242;2022-12-20T02:44:33;13.27;;;8.77;;
8297;SDS011;4187;42.778;23.242;2022-12-20T02:47:23;12.60;;;8.37;;
8297;SDS011;4187;42.778;23.242;2022-12-20T02:49:56;12.03;;;7.37;;
8297;SDS011;4187;42.778;23.242;2022-12-20T02:52:23;9.80;;;6.27;;
8297;SDS011;4187;42.778;23.242;2022-12-20T02:54:55;12.63;;;7.20;;
8297;SDS011;4187;42.778;23.242;2022-12-20T02:57:24;11.07;;;7.10;;
8297;SDS011;4187;42.778;23.242;2022-12-20T02:59:56;9.60;;;6.47;;
8297;SDS011;4187;42.778;23.242;2022-12-20T03:02:27;9.83;;;6.87;;
8297;SDS011;4187;42.778;23.242;2022-12-20T03:05:15;10.10;;;6.37;;
8297;SDS011;4187;42.778;23.242;2022-12-20T03:07:43;10.27;;;7.13;;
8297;SDS011;4187;42.778;23.242;2022-12-20T03:10:10;10.70;;;7.03;;
8297;SDS011;4187;42.778;23.242;2022-12-20T03:12:37;12.13;;;6.97;;
8297;SDS011;4187;42.778;23.242;2022-12-20T03:15:04;10.20;;;7.07;;
8297;SDS011;4187;42.778;23.242;2022-12-20T03:17:33;13.53;;;7.13;;
8297;SDS011;4187;42.778;23.242;2022-12-20T03:20:00;8.97;;;6.77;;
8297;SDS011;4187;42.778;23.242;2022-12-20T03:22:27;11.47;;;7.80;;
8297;SDS011;4187;42.778;23.242;2022-12-20T03:24:53;12.20;;;7.37;;
8297;SDS011;4187;42.778;23.242;2022-12-20T03:27:20;10.40;;;7.07;;
8297;SDS011;4187;42.778;23.242;2022-12-20T03:29:47;9.93;;;7.10;;
8297;SDS011;4187;42.778;23.242;2022-12-20T03:32:14;10.70;;;6.73;;
8297;SDS011;4187;42.778;23.242;2022-12-20T03:34:42;11.50;;;7.20;;
8297;SDS011;4187;42.778;23.242;2022-12-20T03:37:09;10.90;;;7.03;;
8297;SDS011;4187;42.778;23.242;2022-12-20T03:39:36;11.97;;;7.40;;
8297;SDS011;4187;42.778;23.242;2022-12-20T03:42:03;10.87;;;7.37;;
8297;SDS011;4187;42.778;23.242;2022-12-20T03:44:30;10.70;;;7.87;;
8297;SDS011;4187;42.778;23.242;2022-12-20T03:46:57;13.00;;;7.63;;
8297;SDS011;4187;42.778;23.242;2022-12-20T03:49:24;11.07;;;7.43;;
8297;SDS011;4187;42.778;23.242;2022-12-20T03:51:52;10.70;;;7.50;;
8297;SDS011;4187;42.778;23.242;2022-12-20T03:54:19;10.80;;;7.43;;
8297;SDS011;4187;42.778;23.242;2022-12-20T03:56:46;11.37;;;7.27;;
8297;SDS011;4187;42.778;23.242;2022-12-20T03:59:13;10.17;;;6.73;;
8297;SDS011;4187;42.778;23.242;2022-12-20T04:01:40;10.70;;;8.20;;
8297;SDS011;4187;42.778;23.242;2022-12-20T04:04:08;12.13;;;7.50;;
8297;SDS011;4187;42.778;23.242;2022-12-20T04:06:36;11.40;;;7.97;;
8297;SDS011;4187;42.778;23.242;2022-12-20T04:09:04;11.10;;;7.57;;
8297;SDS011;4187;42.778;23.242;2022-12-20T04:11:31;12.73;;;8.07;;
8297;SDS011;4187;42.778;23.242;2022-12-20T04:13:58;14.10;;;10.70;;
8297;SDS011;4187;42.778;23.242;2022-12-20T04:16:26;15.30;;;11.93;;
8297;SDS011;4187;42.778;23.242;2022-12-20T04:18:54;13.67;;;9.63;;
8297;SDS011;4187;42.778;23.242;2022-12-20T04:21:21;13.60;;;8.47;;
8297;SDS011;4187;42.778;23.242;2022-12-20T04:23:49;11.93;;;8.43;;
8297;SDS011;4187;42.778;23.242;2022-12-20T04:26:17;14.10;;;8.67;;
8297;SDS011;4187;42.778;23.242;2022-12-20T04:28:45;12.57;;;8.20;;
8297;SDS011;4187;42.778;23.242;2022-12-20T04:31:11;13.63;;;10.13;;
8297;SDS011;4187;42.778;23.242;2022-12-20T04:33:38;14.40;;;9.83;;
8297;SDS011;4187;42.778;23.242;2022-12-20T04:36:06;14.83;;;10.80;;
8297;SDS011;4187;42.778;23.242;2022-12-20T04:38:33;12.37;;;9.17;;
8297;SDS011;4187;42.778;23.242;2022-12-20T04:41:00;14.77;;;9.83;;
8297;SDS011;4187;42.778;23.242;2022-12-20T04:43:28;17.67;;;10.90;;
8297;SDS011;4187;42.778;23.242;2022-12-20T04:45:55;13.27;;;9.20;;
8297;SDS011;4187;42.778;23.242;2022-12-20T04:48:22;12.33;;;8.73;;
8297;SDS011;4187;42.778;23.242;2022-12-20T04:50:52;14.63;;;9.33;;
8297;SDS011;4187;42.778;23.242;2022-12-20T04:53:20;12.13;;;8.63;;
8297;SDS011;4187;42.778;23.242;2022-12-20T04:56:06;13.87;;;9.03;;
8297;SDS011;4187;42.778;23.242;2022-12-20T04:58:35;18.63;;;9.77;;
8297;SDS011;4187;42.778;23.242;2022-12-20T05:01:01;13.23;;;9.57;;
8297;SDS011;4187;42.778;23.242;2022-12-20T05:03:28;21.03;;;10.67;;
8297;SDS011;4187;42.778;23.242;2022-12-20T05:05:55;23.80;;;13.63;;
8297;SDS011;4187;42.778;23.242;2022-12-20T05:08:22;29.53;;;14.37;;
8297;SDS011;4187;42.778;23.242;2022-12-20T05:10:49;34.47;;;20.37;;
8297;SDS011;4187;42.778;23.242;2022-12-20T05:13:16;50.53;;;26.20;;
8297;SDS011;4187;42.778;23.242;2022-12-20T05:15:44;51.40;;;27.67;;
8297;SDS011;4187;42.778;23.242;2022-12-20T05:18:15;34.73;;;21.30;;
8297;SDS011;4187;42.778;23.242;2022-12-20T05:20:42;27.87;;;17.37;;
8297;SDS011;4187;42.778;23.242;2022-12-20T05:23:09;27.90;;;16.43;;
8297;SDS011;4187;42.778;23.242;2022-12-20T05:25:54;22.73;;;15.37;;
8297;SDS011;4187;42.778;23.242;2022-12-20T05:28:38;24.47;;;14.30;;
8297;SDS011;4187;42.778;23.242;2022-12-20T05:31:06;17.80;;;11.87;;
8297;SDS011;4187;42.778;23.242;2022-12-20T05:33:33;20.60;;;11.87;;
8297;SDS011;4187;42.778;23.242;2022-12-20T05:36:00;17.20;;;12.10;;
8297;SDS011;4187;42.778;23.242;2022-12-20T05:38:27;16.33;;;11.57;;
8297;SDS011;4187;42.778;23.242;2022-12-20T05:40:54;18.67;;;13.07;;
8297;SDS011;4187;42.778;23.242;2022-12-20T05:43:21;21.53;;;14.60;;
8297;SDS011;4187;42.778;23.242;2022-12-20T05:45:48;22.90;;;16.20;;
8297;SDS011;4187;42.778;23.242;2022-12-20T05:48:18;28.57;;;19.67;;
8297;SDS011;4187;42.778;23.242;2022-12-20T05:50:45;29.57;;;19.73;;
8297;SDS011;4187;42.778;23.242;2022-12-20T05:53:13;28.40;;;17.87;;
8297;SDS011;4187;42.778;23.242;2022-12-20T05:55:42;28.80;;;18.07;;
8297;SDS011;4187;42.778;23.242;2022-12-20T05:58:10;31.83;;;19.73;;
8297;SDS011;4187;42.778;23.242;2022-12-20T06:00:38;26.13;;;17.60;;
8297;SDS011;4187;42.778;23.242;2022-12-20T06:03:06;39.33;;;22.60;;
8297;SDS011;4187;42.778;23.242;2022-12-20T06:05:35;47.03;;;25.83;;
8297;SDS011;4187;42.778;23.242;2022-12-20T06:08:03;45.50;;;26.43;;
8297;SDS011;4187;42.778;23.242;2022-12-20T06:10:31;42.57;;;24.53;;
8297;SDS011;4187;42.778;23.242;2022-12-20T06:12:58;45.70;;;22.83;;
8297;SDS011;4187;42.778;23.242;2022-12-20T06:15:26;38.83;;;23.07;;
8297;SDS011;4187;42.778;23.242;2022-12-20T06:17:53;32.83;;;21.37;;
8297;SDS011;4187;42.778;23.242;2022-12-20T06:20:20;34.67;;;22.63;;
8297;SDS011;4187;42.778;23.242;2022-12-20T06:22:48;38.20;;;21.60;;
8297;SDS011;4187;42.778;23.242;2022-12-20T06:25:15;39.83;;;24.07;;
8297;SDS011;4187;42.778;23.242;2022-12-20T06:27:42;29.07;;;19.53;;
8297;SDS011;4187;42.778;23.242;2022-12-20T06:30:09;35.63;;;20.73;;
8297;SDS011;4187;42.778;23.242;2022-12-20T06:32:37;31.20;;;19.80;;
8297;SDS011;4187;42.778;23.242;2022-12-20T06:35:04;32.00;;;19.80;;
8297;SDS011;4187;42.778;23.242;2022-12-20T06:37:31;29.47;;;19.33;;
8297;SDS011;4187;42.778;23.242;2022-12-20T06:40:00;31.13;;;19.80;;
8297;SDS011;4187;42.778;23.242;2022-12-20T06:42:27;29.77;;;21.13;;
8297;SDS011;4187;42.778;23.242;2022-12-20T06:44:54;36.90;;;22.50;;
8297;SDS011;4187;42.778;23.242;2022-12-20T06:47:21;28.83;;;19.83;;
8297;SDS011;4187;42.778;23.242;2022-12-20T06:49:47;32.67;;;21.00;;
8297;SDS011;4187;42.778;23.242;2022-12-20T06:52:14;23.50;;;16.17;;
8297;SDS011;4187;42.778;23.242;2022-12-20T06:54:41;26.40;;;18.40;;
8297;SDS011;4187;42.778;23.242;2022-12-20T06:57:10;31.80;;;19.90;;
8297;SDS011;4187;42.778;23.242;2022-12-20T06:59:36;35.50;;;22.20;;
8297;SDS011;4187;42.778;23.242;2022-12-20T07:02:03;33.67;;;20.63;;
8297;SDS011;4187;42.778;23.242;2022-12-20T07:04:30;33.90;;;19.83;;
8297;SDS011;4187;42.778;23.242;2022-12-20T07:06:57;32.23;;;17.87;;
8297;SDS011;4187;42.778;23.242;2022-12-20T07:09:24;26.73;;;16.17;;
8297;SDS011;4187;42.778;23.242;2022-12-20T07:11:50;26.80;;;14.77;;
8297;SDS011;4187;42.778;23.242;2022-12-20T07:14:19;23.77;;;16.03;;
8297;SDS011;4187;42.778;23.242;2022-12-20T07:16:45;22.67;;;15.47;;
8297;SDS011;4187;42.778;23.242;2022-12-20T07:19:12;19.43;;;13.37;;
8297;SDS011;4187;42.778;23.242;2022-12-20T07:21:39;18.03;;;11.83;;
8297;SDS011;4187;42.778;23.242;2022-12-20T07:24:07;18.20;;;13.73;;
8297;SDS011;4187;42.778;23.242;2022-12-20T07:26:34;30.60;;;18.30;;
8297;SDS011;4187;42.778;23.242;2022-12-20T07:29:01;28.87;;;18.20;;
8297;SDS011;4187;42.778;23.242;2022-12-20T07:31:29;23.50;;;14.63;;
8297;SDS011;4187;42.778;23.242;2022-12-20T07:33:56;26.20;;;15.53;;
8297;SDS011;4187;42.778;23.242;2022-12-20T07:36:23;17.50;;;12.47;;
8297;SDS011;4187;42.778;23.242;2022-12-20T07:38:49;17.73;;;13.50;;
8297;SDS011;4187;42.778;23.242;2022-12-20T07:41:16;17.30;;;12.60;;
8297;SDS011;4187;42.778;23.242;2022-12-20T07:43:43;17.47;;;12.90;;
8297;SDS011;4187;42.778;23.242;2022-12-20T07:46:11;28.57;;;16.60;;
8297;SDS011;4187;42.778;23.242;2022-12-20T07:48:42;22.43;;;14.10;;
8297;SDS011;4187;42.778;23.242;2022-12-20T07:51:11;14.37;;;9.77;;
8297;SDS011;4187;42.778;23.242;2022-12-20T07:53:41;17.30;;;11.57;;
8297;SDS011;4187;42.778;23.242;2022-12-20T07:56:12;15.57;;;9.67;;
8297;SDS011;4187;42.778;23.242;2022-12-20T07:58:40;12.23;;;8.73;;
8297;SDS011;4187;42.778;23.242;2022-12-20T08:01:08;16.80;;;10.30;;
8297;SDS011;4187;42.778;23.242;2022-12-20T08:03:39;14.47;;;10.00;;
8297;SDS011;4187;42.778;23.242;2022-12-20T08:06:10;15.97;;;9.60;;
8297;SDS011;4187;42.778;23.242;2022-12-20T08:08:39;13.30;;;8.70;;
8297;SDS011;4187;42.778;23.242;2022-12-20T08:11:11;14.83;;;9.40;;
8297;SDS011;4187;42.778;23.242;2022-12-20T08:13:39;16.90;;;9.43;;
8297;SDS011;4187;42.778;23.242;2022-12-20T08:16:06;14.17;;;8.90;;
8297;SDS011;4187;42.778;23.242;2022-12-20T08:18:33;13.27;;;9.17;;
8297;SDS011;4187;42.778;23.242;2022-12-20T08:21:01;11.90;;;8.30;;
8297;SDS011;4187;42.778;23.242;2022-12-20T08:23:28;14.93;;;8.17;;
8297;SDS011;4187;42.778;23.242;2022-12-20T08:25:55;11.83;;;8.43;;
8297;SDS011;4187;42.778;23.242;2022-12-20T08:28:22;17.93;;;8.93;;
8297;SDS011;4187;42.778;23.242;2022-12-20T08:30:49;10.37;;;6.63;;
8297;SDS011;4187;42.778;23.242;2022-12-20T08:33:17;9.43;;;6.30;;
8297;SDS011;4187;42.778;23.242;2022-12-20T08:35:44;10.20;;;6.37;;
8297;SDS011;4187;42.778;23.242;2022-12-20T08:38:12;10.37;;;7.33;;
8297;SDS011;4187;42.778;23.242;2022-12-20T08:40:39;15.03;;;8.07;;
8297;SDS011;4187;42.778;23.242;2022-12-20T08:43:05;11.70;;;7.43;;
8297;SDS011;4187;42.778;23.242;2022-12-20T08:45:32;12.53;;;8.23;;
8297;SDS011;4187;42.778;23.242;2022-12-20T08:47:59;11.67;;;7.33;;
8297;SDS011;4187;42.778;23.242;2022-12-20T08:50:27;13.60;;;7.13;;
8297;SDS011;4187;42.778;23.242;2022-12-20T08:52:54;11.03;;;8.17;;
8297;SDS011;4187;42.778;23.242;2022-12-20T08:55:23;10.77;;;7.73;;
8297;SDS011;4187;42.778;23.242;2022-12-20T08:57:50;17.67;;;11.43;;
8297;SDS011;4187;42.778;23.242;2022-12-20T09:00:17;11.27;;;8.07;;
8297;SDS011;4187;42.778;23.242;2022-12-20T09:02:44;11.53;;;7.87;;
8297;SDS011;4187;42.778;23.242;2022-12-20T09:05:12;15.03;;;9.07;;
8297;SDS011;4187;42.778;23.242;2022-12-20T09:07:39;16.50;;;9.97;;
8297;SDS011;4187;42.778;23.242;2022-12-20T09:10:06;12.87;;;8.20;;
8297;SDS011;4187;42.778;23.242;2022-12-20T09:12:36;16.93;;;8.77;;
8297;SDS011;4187;42.778;23.242;2022-12-20T09:15:03;18.20;;;9.30;;
8297;SDS011;4187;42.778;23.242;2022-12-20T09:17:31;12.97;;;8.13;;
8297;SDS011;4187;42.778;23.242;2022-12-20T09:19:58;11.00;;;7.50;;
8297;SDS011;4187;42.778;23.242;2022-12-20T09:22:27;10.43;;;7.77;;
8297;SDS011;4187;42.778;23.242;2022-12-20T09:24:54;9.10;;;6.73;;
8297;SDS011;4187;42.778;23.242;2022-12-20T09:27:20;9.73;;;6.83;;
8297;SDS011;4187;42.778;23.242;2022-12-20T09:29:49;9.07;;;7.03;;
8297;SDS011;4187;42.778;23.242;2022-12-20T09:32:16;10.80;;;6.67;;
8297;SDS011;4187;42.778;23.242;2022-12-20T09:34:43;11.57;;;7.40;;
8297;SDS011;4187;42.778;23.242;2022-12-20T09:37:11;12.57;;;7.20;;
8297;SDS011;4187;42.778;23.242;2022-12-20T09:39:38;15.83;;;8.77;;
8297;SDS011;4187;42.778;23.242;2022-12-20T09:42:05;12.23;;;8.07;;
8297;SDS011;4187;42.778;23.242;2022-12-20T09:44:34;10.23;;;7.50;;
8297;SDS011;4187;42.778;23.242;2022-12-20T09:47:08;14.03;;;9.10;;
8297;SDS011;4187;42.778;23.242;2022-12-20T09:49:42;9.40;;;7.20;;
8297;SDS011;4187;42.778;23.242;2022-12-20T09:52:18;9.73;;;7.40;;
8297;SDS011;4187;42.778;23.242;2022-12-20T09:55:06;15.13;;;9.60;;
8297;SDS011;4187;42.778;23.242;2022-12-20T09:57:46;10.90;;;7.95;;
8297;SDS011;4187;42.778;23.242;2022-12-20T10:00:20;9.43;;;7.47;;
8297;SDS011;4187;42.778;23.242;2022-12-20T10:02:48;12.70;;;7.43;;
8297;SDS011;4187;42.778;23.242;2022-12-20T10:05:16;10.10;;;6.80;;
8297;SDS011;4187;42.778;23.242;2022-12-20T10:07:52;9.57;;;7.47;;
8297;SDS011;4187;42.778;23.242;2022-12-20T10:10:32;11.47;;;7.70;;
8297;SDS011;4187;42.778;23.242;2022-12-20T10:13:11;10.53;;;7.47;;
8297;SDS011;4187;42.778;23.242;2022-12-20T10:15:50;11.03;;;7.57;;
8297;SDS011;4187;42.778;23.242;2022-12-20T10:18:23;9.07;;;7.07;;
8297;SDS011;4187;42.778;23.242;2022-12-20T10:21:04;13.80;;;7.90;;
8297;SDS011;4187;42.778;23.242;2022-12-20T10:23:37;18.70;;;10.18;;
8297;SDS011;4187;42.778;23.242;2022-12-20T10:26:09;16.38;;;9.05;;
8297;SDS011;4187;42.778;23.242;2022-12-20T10:28:37;12.03;;;8.67;;
8297;SDS011;4187;42.778;23.242;2022-12-20T10:31:06;12.80;;;8.93;;
8297;SDS011;4187;42.778;23.242;2022-12-20T10:33:35;10.02;;;7.60;;
8297;SDS011;4187;42.778;23.242;2022-12-20T10:38:45;10.63;;;7.00;;
8297;SDS011;4187;42.778;23.242;2022-12-20T10:41:14;10.77;;;7.93;;
8297;SDS011;4187;42.778;23.242;2022-12-20T10:43:43;10.00;;;6.70;;
8297;SDS011;4187;42.778;23.242;2022-12-20T10:46:12;13.20;;;8.73;;
8297;SDS011;4187;42.778;23.242;2022-12-20T10:48:43;8.80;;;6.88;;
8297;SDS011;4187;42.778;23.242;2022-12-20T10:51:15;10.68;;;8.07;;
8297;SDS011;4187;42.778;23.242;2022-12-20T10:53:50;11.63;;;8.88;;
8297;SDS011;4187;42.778;23.242;2022-12-20T10:56:20;10.68;;;7.28;;
8297;SDS011;4187;42.778;23.242;2022-12-20T10:58:52;8.20;;;6.18;;
8297;SDS011;4187;42.778;23.242;2022-12-20T11:01:22;10.98;;;8.20;;
8297;SDS011;4187;42.778;23.242;2022-12-20T11:03:55;9.48;;;6.82;;
8297;SDS011;4187;42.778;23.242;2022-12-20T11:06:26;18.57;;;8.27;;
8297;SDS011;4187;42.778;23.242;2022-12-20T11:14:38;10.48;;;7.18;;
8297;SDS011;4187;42.778;23.242;2022-12-20T11:17:14;12.80;;;7.68;;
8297;SDS011;4187;42.778;23.242;2022-12-20T11:19:52;12.77;;;7.93;;
8297;SDS011;4187;42.778;23.242;2022-12-20T11:22:35;10.90;;;7.25;;
8297;SDS011;4187;42.778;23.242;2022-12-20T11:25:24;8.43;;;6.05;;
8297;SDS011;4187;42.778;23.242;2022-12-20T11:28:10;11.05;;;8.63;;
8297;SDS011;4187;42.778;23.242;2022-12-20T11:30:49;10.32;;;7.25;;
8297;SDS011;4187;42.778;23.242;2022-12-20T11:33:37;8.32;;;6.40;;
8297;SDS011;4187;42.778;23.242;2022-12-20T11:36:20;12.27;;;8.15;;
8297;SDS011;4187;42.778;23.242;2022-12-20T11:38:58;10.55;;;7.30;;
8297;SDS011;4187;42.778;23.242;2022-12-20T11:41:31;7.80;;;6.20;;
8297;SDS011;4187;42.778;23.242;2022-12-20T11:44:08;12.18;;;7.57;;
8297;SDS011;4187;42.778;23.242;2022-12-20T11:46:50;8.95;;;6.85;;
8297;SDS011;4187;42.778;23.242;2022-12-20T11:49:38;12.77;;;7.63;;
8297;SDS011;4187;42.778;23.242;2022-12-20T11:52:18;10.05;;;7.40;;
8297;SDS011;4187;42.778;23.242;2022-12-20T11:54:56;10.57;;;8.70;;
8297;SDS011;4187;42.778;23.242;2022-12-20T11:57:31;13.02;;;8.20;;
8297;SDS011;4187;42.778;23.242;2022-12-20T12:00:04;11.63;;;8.40;;
8297;SDS011;4187;42.778;23.242;2022-12-20T12:02:33;12.95;;;7.88;;
8297;SDS011;4187;42.778;23.242;2022-12-20T12:05:15;10.77;;;8.10;;
8297;SDS011;4187;42.778;23.242;2022-12-20T12:07:49;13.45;;;8.77;;
8297;SDS011;4187;42.778;23.242;2022-12-20T12:10:21;10.70;;;7.22;;
8297;SDS011;4187;42.778;23.242;2022-12-20T12:12:51;10.00;;;7.57;;
8297;SDS011;4187;42.778;23.242;2022-12-20T12:15:26;8.57;;;6.47;;
8297;SDS011;4187;42.778;23.242;2022-12-20T12:18:00;9.65;;;7.15;;
8297;SDS011;4187;42.778;23.242;2022-12-20T12:20:34;11.88;;;8.70;;
8297;SDS011;4187;42.778;23.242;2022-12-20T12:23:09;10.98;;;8.00;;
8297;SDS011;4187;42.778;23.242;2022-12-20T12:25:41;10.98;;;7.65;;
8297;SDS011;4187;42.778;23.242;2022-12-20T12:28:09;10.82;;;6.57;;
8297;SDS011;4187;42.778;23.242;2022-12-20T12:30:39;11.85;;;7.88;;
8297;SDS011;4187;42.778;23.242;2022-12-20T12:33:11;8.80;;;6.45;;
8297;SDS011;4187;42.778;23.242;2022-12-20T12:35:45;8.85;;;6.38;;
8297;SDS011;4187;42.778;23.242;2022-12-20T12:38:45;8.60;;;6.10;;
8297;SDS011;4187;42.778;23.242;2022-12-20T12:41:43;8.07;;;6.25;;
8297;SDS011;4187;42.778;23.242;2022-12-20T12:44:37;15.40;;;10.07;;
8297;SDS011;4187;42.778;23.242;2022-12-20T12:47:11;11.68;;;7.03;;
8297;SDS011;4187;42.778;23.242;2022-12-20T12:49:42;10.02;;;7.35;;
8297;SDS011;4187;42.778;23.242;2022-12-20T12:52:25;8.10;;;6.45;;
8297;SDS011;4187;42.778;23.242;2022-12-20T12:54:56;10.95;;;6.32;;
8297;SDS011;4187;42.778;23.242;2022-12-20T12:57:23;8.57;;;5.70;;
8297;SDS011;4187;42.778;23.242;2022-12-20T12:59:50;10.05;;;7.10;;
8297;SDS011;4187;42.778;23.242;2022-12-20T13:02:25;7.22;;;5.82;;
8297;SDS011;4187;42.778;23.242;2022-12-20T13:05:30;8.32;;;6.55;;
8297;SDS011;4187;42.778;23.242;2022-12-20T13:07:59;8.90;;;6.90;;
8297;SDS011;4187;42.778;23.242;2022-12-20T13:13:23;8.68;;;5.78;;
8297;SDS011;4187;42.778;23.242;2022-12-20T13:15:51;8.07;;;5.90;;
8297;SDS011;4187;42.778;23.242;2022-12-20T13:18:29;6.95;;;5.72;;
8297;SDS011;4187;42.778;23.242;2022-12-20T13:21:16;10.40;;;7.20;;
8297;SDS011;4187;42.778;23.242;2022-12-20T13:27:01;10.65;;;6.53;;
8297;SDS011;4187;42.778;23.242;2022-12-20T13:29:32;8.68;;;6.05;;
8297;SDS011;4187;42.778;23.242;2022-12-20T13:32:00;6.63;;;5.20;;
8297;SDS011;4187;42.778;23.242;2022-12-20T13:34:36;7.45;;;5.53;;
8297;SDS011;4187;42.778;23.242;2022-12-20T13:39:53;9.02;;;6.80;;
8297;SDS011;4187;42.778;23.242;2022-12-20T13:42:33;11.05;;;6.97;;
8297;SDS011;4187;42.778;23.242;2022-12-20T13:45:08;9.85;;;7.20;;
8297;SDS011;4187;42.778;23.242;2022-12-20T13:47:45;10.60;;;7.28;;
8297;SDS011;4187;42.778;23.242;2022-12-20T13:50:27;19.60;;;14.40;;
8297;SDS011;4187;42.778;23.242;2022-12-20T13:52:59;20.05;;;13.90;;
8297;SDS011;4187;42.778;23.242;2022-12-20T13:55:34;12.90;;;9.60;;
8297;SDS011;4187;42.778;23.242;2022-12-20T13:58:05;14.63;;;9.30;;
8297;SDS011;4187;42.778;23.242;2022-12-20T14:00:38;14.85;;;9.65;;
8297;SDS011;4187;42.778;23.242;2022-12-20T14:03:08;15.88;;;9.07;;
8297;SDS011;4187;42.778;23.242;2022-12-20T14:05:43;13.05;;;8.50;;
8297;SDS011;4187;42.778;23.242;2022-12-20T14:08:12;11.82;;;8.30;;
8297;SDS011;4187;42.778;23.242;2022-12-20T14:10:41;15.65;;;9.23;;
8297;SDS011;4187;42.778;23.242;2022-12-20T14:13:16;16.75;;;12.55;;
8297;SDS011;4187;42.778;23.242;2022-12-20T14:15:45;23.00;;;13.60;;
8297;SDS011;4187;42.778;23.242;2022-12-20T14:18:15;78.07;;;48.17;;
8297;SDS011;4187;42.778;23.242;2022-12-20T14:20:44;59.15;;;40.92;;
8297;SDS011;4187;42.778;23.242;2022-12-20T14:23:13;42.97;;;30.08;;
8297;SDS011;4187;42.778;23.242;2022-12-20T14:25:42;57.95;;;40.88;;
8297;SDS011;4187;42.778;23.242;2022-12-20T14:28:19;69.85;;;46.83;;
8297;SDS011;4187;42.778;23.242;2022-12-20T14:30:55;72.22;;;45.05;;
8297;SDS011;4187;42.778;23.242;2022-12-20T14:33:26;62.17;;;41.33;;
8297;SDS011;4187;42.778;23.242;2022-12-20T14:35:56;53.15;;;36.70;;
8297;SDS011;4187;42.778;23.242;2022-12-20T14:38:32;43.08;;;29.15;;
8297;SDS011;4187;42.778;23.242;2022-12-20T14:40:59;65.10;;;44.00;;
8297;SDS011;4187;42.778;23.242;2022-12-20T14:43:28;128.50;;;96.75;;
8297;SDS011;4187;42.778;23.242;2022-12-20T14:46:12;123.93;;;94.75;;
8297;SDS011;4187;42.778;23.242;2022-12-20T14:48:43;81.15;;;67.50;;
8297;SDS011;4187;42.778;23.242;2022-12-20T14:51:10;44.17;;;39.70;;
8297;SDS011;4187;42.778;23.242;2022-12-20T14:53:38;24.88;;;22.38;;
8297;SDS011;4187;42.778;23.242;2022-12-20T14:56:12;22.13;;;19.83;;
8297;SDS011;4187;42.778;23.242;2022-12-20T14:58:42;22.17;;;14.60;;
8297;SDS011;4187;42.778;23.242;2022-12-20T15:01:16;23.83;;;16.92;;
8297;SDS011;4187;42.778;23.242;2022-12-20T15:03:47;27.23;;;18.02;;
8297;SDS011;4187;42.778;23.242;2022-12-20T15:06:30;31.73;;;20.02;;
8297;SDS011;4187;42.778;23.242;2022-12-20T15:08:58;33.28;;;20.02;;
8297;SDS011;4187;42.778;23.242;2022-12-20T15:11:25;35.70;;;23.73;;
8297;SDS011;4187;42.778;23.242;2022-12-20T15:13:53;39.60;;;24.80;;
8297;SDS011;4187;42.778;23.242;2022-12-20T15:16:23;41.30;;;26.07;;
8297;SDS011;4187;42.778;23.242;2022-12-20T15:18:52;46.13;;;27.43;;
8297;SDS011;4187;42.778;23.242;2022-12-20T15:21:22;32.07;;;19.97;;
8297;SDS011;4187;42.778;23.242;2022-12-20T15:23:54;30.60;;;18.67;;
8297;SDS011;4187;42.778;23.242;2022-12-20T15:26:23;41.57;;;22.27;;
8297;SDS011;4187;42.778;23.242;2022-12-20T15:28:51;43.13;;;23.70;;